Data for 03/18/2015

Time Sea-Level Adjusted Pressure Absolute Pressure Temperature Relative Humidity Dew Point   
(mb) (inHg) (mb) (inHg) (C) (F) (%) (C) (F)
00:05 1017 30.03 846 24.98 2.4 36.4 94 1.6 34.9
00:10 1017 30.03 846 24.98 2.4 36.3 95 1.6 34.9
00:15 1017 30.03 846 24.98 2.4 36.3 95 1.7 35
00:20 1016 30 846 24.98 2.4 36.3 95 1.7 35
00:25 1016 30 845 24.95 2.4 36.4 95 1.7 35.1
00:30 1016 30 846 24.98 2.5 36.5 95 1.8 35.2
00:35 1017 30.03 846 24.98 2.6 36.6 95 1.8 35.3
00:40 1017 30.03 846 24.98 2.6 36.7 95 1.9 35.3
00:45 1017 30.03 846 24.98 2.7 36.8 95 1.9 35.3
00:50 1017 30.03 846 24.98 2.7 36.8 95 1.9 35.4
00:55 1017 30.03 846 24.98 2.7 36.8 95 1.9 35.4
01:00 1016 30 846 24.98 2.5 36.5 94 1.7 35
01:05 1016 30 846 24.98 2.4 36.4 95 1.6 35
01:10 1016 30 846 24.98 2.5 36.4 95 1.7 35
01:15 1016 30 846 24.98 2.5 36.5 95 1.7 35.1
01:20 1016 30 846 24.98 2.5 36.5 95 1.7 35.1
01:25 1017 30.03 846 24.98 2.5 36.6 95 1.8 35.2
01:30 1017 30.03 846 24.98 2.6 36.6 95 1.8 35.2
01:35 1017 30.03 846 24.98 2.6 36.7 94 1.8 35.2
01:40 1017 30.03 846 24.98 2.8 37 94 1.9 35.4
01:45 1017 30.03 846 24.98 2.9 37.2 94 2 35.6
01:50 1017 30.03 846 24.98 3 37.3 93 2 35.5
01:55 1017 30.03 846 24.98 3 37.4 93 1.9 35.4
02:00 1017 30.03 846 24.98 3 37.4 93 2 35.5
02:05 1017 30.03 846 24.98 3.1 37.5 93 2 35.6
02:10 1017 30.03 846 24.98 3.2 37.7 92 2.1 35.7
02:15 1017 30.03 846 24.98 3.4 38.1 92 2.2 35.9
02:20 1017 30.03 846 24.98 3.5 38.3 91 2.2 36
02:25 1017 30.03 846 24.98 3.6 38.4 91 2.2 36
02:30 1017 30.03 846 24.98 3.6 38.5 91 2.3 36.2
02:35 1017 30.03 846 24.98 3.6 38.5 91 2.3 36.2
02:40 1017 30.03 846 24.98 3.6 38.5 91 2.3 36.2
02:45 1017 30.03 846 24.98 3.6 38.5 92 2.4 36.3
02:50 1017 30.03 846 24.98 3.6 38.6 91 2.4 36.3
02:55 1017 30.03 846 24.98 3.6 38.6 92 2.4 36.3
03:00 1017 30.03 846 24.98 3.6 38.5 91 2.3 36.1
03:05 1017 30.03 846 24.98 3.5 38.2 91 2.2 35.9
03:10 1017 30.03 846 24.98 3.4 38 92 2.1 35.8
03:15 1017 30.03 846 24.98 3.3 37.9 92 2.2 35.9
03:20 1017 30.03 846 24.98 3.3 37.9 93 2.2 35.9
03:25 1017 30.03 846 24.98 3.3 37.9 93 2.2 36
03:30 1017 30.03 846 24.98 3.3 37.9 93 2.2 36
03:35 1017 30.03 846 24.98 3.2 37.7 94 2.2 36
03:40 1017 30.03 846 24.98 3.3 37.9 94 2.3 36.2
03:45 1017 30.03 846 24.98 3.5 38.4 92 2.4 36.3
03:50 1017 30.03 846 24.98 3.7 38.7 90 2.2 36
03:55 1017 30.03 846 24.98 3.9 39 90 2.3 36.2
04:00 1017 30.03 846 24.98 3.9 39 86 1.7 35.1
04:05 1017 30.03 846 24.98 4 39.2 86 1.9 35.4
04:10 1017 30.03 846 24.98 4 39.3 85 1.7 35
04:15 1017 30.03 846 24.98 4.1 39.4 85 1.8 35.3
04:20 1017 30.03 846 24.98 4 39.3 85 1.7 35.1
04:25 1017 30.03 846 24.98 4 39.2 82 1.2 34.2
04:30 1017 30.03 846 24.98 4.2 39.5 82 1.3 34.4
04:35 1017 30.03 846 24.98 4.2 39.6 84 1.7 35.1
04:40 1017 30.03 847 25.01 4.1 39.4 85 1.9 35.4
04:45 1017 30.03 847 25.01 4 39.2 86 1.9 35.5
04:50 1017 30.03 847 25.01 3.9 39.1 87 2 35.6
04:55 1017 30.03 847 25.01 3.9 39 88 2.1 35.8
05:00 1017 30.03 847 25.01 3.9 39 88 2.1 35.8
05:05 1017 30.03 847 25.01 3.9 38.9 89 2.2 35.9
05:10 1018 30.06 847 25.01 3.8 38.9 89 2.1 35.8
05:15 1018 30.06 847 25.01 3.7 38.7 89 2.1 35.7
05:20 1018 30.06 847 25.01 3.6 38.5 89 2 35.7
05:25 1018 30.06 847 25.01 3.5 38.3 90 2 35.6
05:30 1018 30.06 847 25.01 3.5 38.2 89 1.9 35.4
05:35 1018 30.06 847 25.01 3.2 37.8 90 1.7 35
05:40 1018 30.06 847 25.01 3 37.5 89 1.4 34.6
05:45 1018 30.06 847 25.01 3.1 37.5 89 1.4 34.6
05:50 1018 30.06 847 25.01 3.1 37.6 89 1.5 34.6
05:55 1018 30.06 847 25.01 3.2 37.8 89 1.6 34.9
06:00 1018 30.06 847 25.01 3.2 37.8 90 1.7 35.1
06:05 1018 30.06 847 25.01 3 37.5 91 1.7 35.1
06:10 1018 30.06 847 25.01 2.9 37.3 92 1.8 35.2
06:15 1018 30.06 847 25.01 2.8 37 93 1.8 35.2
06:20 1018 30.06 847 25.01 2.7 36.8 94 1.7 35.1
06:25 1018 30.06 848 25.04 2.6 36.7 94 1.7 35.1
06:30 1018 30.06 848 25.04 2.6 36.6 94 1.7 35.1
06:35 1018 30.06 848 25.04 2.6 36.7 94 1.8 35.2
06:40 1018 30.06 848 25.04 2.6 36.7 95 1.8 35.3
06:45 1019 30.09 848 25.04 2.6 36.7 95 1.8 35.3
06:50 1019 30.09 848 25.04 2.6 36.8 94 1.8 35.3
06:55 1019 30.09 848 25.04 2.7 36.8 94 1.8 35.3
07:00 1019 30.09 848 25.04 2.7 36.8 94 1.8 35.3
07:05 1019 30.09 848 25.04 2.7 36.9 93 1.8 35.2
07:10 1019 30.09 848 25.04 2.9 37.1 93 1.8 35.2
07:15 1019 30.09 848 25.04 3 37.3 92 1.7 35.1
07:20 1019 30.09 848 25.04 3 37.4 91 1.7 35.1
07:25 1019 30.09 848 25.04 3.1 37.6 91 1.8 35.2
07:30 1019 30.09 848 25.04 3.1 37.6 90 1.7 35
07:35 1019 30.09 848 25.04 3.1 37.6 90 1.7 35.1
07:40 1019 30.09 848 25.04 3.1 37.5 90 1.6 34.8
07:45 1019 30.09 848 25.04 3 37.5 90 1.5 34.7
07:50 1019 30.09 848 25.04 3.1 37.5 89 1.5 34.7
07:55 1019 30.09 848 25.04 3.1 37.6 89 1.4 34.6
08:00 1019 30.09 848 25.04 3.2 37.7 87 1.3 34.3
08:05 1019 30.09 848 25.04 3.1 37.6 84 0.7 33.3
08:10 1019 30.09 848 25.04 3.1 37.6 82 0.3 32.6
08:15 1019 30.09 848 25.04 3.1 37.6 80 0.1 32.1
08:20 1019 30.09 849 25.07 3.1 37.7 77 -0.5 31.2
08:25 1019 30.09 849 25.07 3.2 37.8 73 -1.2 29.9
08:30 1019 30.09 849 25.07 3.2 37.8 72 -1.3 29.6
08:35 1019 30.09 849 25.07 3.2 37.8 72 -1.3 29.6
08:40 1019 30.09 849 25.07 3.2 37.8 71 -1.5 29.2
08:45 1020 30.12 849 25.07 3.2 37.8 72 -1.4 29.4
08:50 1020 30.12 849 25.07 3.3 38 70 -1.6 29.1
08:55 1020 30.12 849 25.07 3.5 38.3 68 -1.8 28.7
09:00 1020 30.12 849 25.07 3.7 38.7 70 -1.2 29.8
09:05 1020 30.12 849 25.07 4 39.1 69 -1.3 29.7
09:10 1020 30.12 849 25.07 4 39.3 68 -1.3 29.6
09:15 1020 30.12 849 25.07 4.3 39.7 65 -1.8 28.8
09:20 1020 30.12 849 25.07 4.8 40.7 59 -2.4 27.6
09:25 1020 30.12 849 25.07 4.9 40.8 62 -1.8 28.8
09:30 1020 30.12 849 25.07 5.3 41.6 59 -2 28.4
09:35 1020 30.12 849 25.07 5.1 41.2 62 -1.6 29.1
09:40 1020 30.12 849 25.07 5.2 41.4 60 -1.9 28.6
09:45 1020 30.12 849 25.07 5.8 42.4 57 -2 28.4
09:50 1020 30.12 849 25.07 5.3 41.6 61 -1.7 29
09:55 1020 30.12 849 25.07 6.2 43.2 58 -1.3 29.6
10:00 1020 30.12 849 25.07 7.1 44.7 54 -1.5 29.2
10:05 1020 30.12 849 25.07 6.2 43.2 55 -2.2 28
10:10 1020 30.12 849 25.07 6.6 43.9 49 -3.4 25.8
10:15 1020 30.12 849 25.07 7.2 45 46 -3.5 25.6
10:20 1020 30.12 849 25.07 7.6 45.8 48 -2.8 27
10:25 1020 30.12 849 25.07 7.4 45.3 48 -2.8 26.9
10:30 1020 30.12 849 25.07 7.3 45.1 47 -3.3 26
10:35 1020 30.12 849 25.07 7.6 45.6 47 -3.1 26.4
10:40 1020 30.12 849 25.07 7.4 45.4 49 -2.7 27.1
10:45 1020 30.12 849 25.07 7.5 45.4 44 -3.9 24.9
10:50 1020 30.12 849 25.07 7.7 45.9 47 -2.9 26.8
10:55 1020 30.12 849 25.07 6.8 44.2 49 -3.1 26.4
11:00 1020 30.12 849 25.07 6.8 44.2 47 -3.7 25.3
11:05 1020 30.12 849 25.07 6.8 44.3 46 -3.9 24.9
11:10 1020 30.12 849 25.07 7.4 45.2 44 -4 24.9
11:15 1020 30.12 849 25.07 7.8 46.1 43 -4 24.7
11:20 1019 30.09 849 25.07 7.5 45.5 46 -3.5 25.7
11:25 1019 30.09 849 25.07 7.3 45.1 44 -4.1 24.6
11:30 1019 30.09 849 25.07 8.5 47.4 40 -4.1 24.6
11:35 1019 30.09 848 25.04 7.6 45.7 45 -3.5 25.7
11:40 1019 30.09 848 25.04 7 44.6 46 -3.9 25
11:45 1019 30.09 848 25.04 7.3 45.1 46 -3.7 25.4
11:50 1019 30.09 848 25.04 7.2 44.9 47 -3.3 26
11:55 1019 30.09 848 25.04 7.6 45.7 45 -3.7 25.4
12:00 1019 30.09 848 25.04 8 46.3 44 -3.5 25.6
12:05 1019 30.09 848 25.04 7.9 46.3 39 -5 23
12:10 1019 30.09 848 25.04 7.9 46.2 41 -4.5 23.9
12:15 1019 30.09 848 25.04 8.4 47.2 40 -4.3 24.2
12:20 1019 30.09 848 25.04 8.6 47.5 40 -4.2 24.5
12:25 1019 30.09 848 25.04 8.7 47.6 40 -4.1 24.7
12:30 1019 30.09 848 25.04 8.4 47.2 43 -3.5 25.7
12:35 1019 30.09 848 25.04 8.2 46.8 43 -3.5 25.6
12:40 1019 30.09 848 25.04 8 46.3 47 -2.7 27.1
12:45 1019 30.09 848 25.04 7.5 45.4 56 -0.9 30.5
12:50 1019 30.09 848 25.04 6.8 44.3 54 -1.7 28.9
12:55 1019 30.09 848 25.04 6.5 43.7 57 -1.5 29.3
13:00 1019 30.09 848 25.04 6.6 43.8 60 -0.5 31
13:05 1019 30.09 848 25.04 7 44.6 52 -2.1 28.2
13:10 1019 30.09 848 25.04 7.4 45.4 50 -2.3 27.8
13:15 1019 30.09 848 25.04 7.2 44.9 51 -2.4 27.7
13:20 1019 30.09 848 25.04 7.2 45 48 -3 26.7
13:25 1019 30.09 848 25.04 8.3 47 44 -3.1 26.4
13:30 1019 30.09 848 25.04 8.8 47.8 39 -4.5 24
13:35 1019 30.09 848 25.04 9.5 49.1 35 -5.3 22.5
13:40 1018 30.06 848 25.04 9.5 49 35 -5.1 22.9
13:45 1018 30.06 848 25.04 9 48.2 33 -6.3 20.7
13:50 1018 30.06 848 25.04 8.8 47.8 34 -6.3 20.6
13:55 1018 30.06 848 25.04 8.8 47.8 38 -4.7 23.5
14:00 1018 30.06 848 25.04 8.4 47.1 47 -2.3 27.9
14:05 1018 30.06 848 25.04 7.4 45.3 48 -2.8 27
14:10 1019 30.09 848 25.04 7.3 45.1 50 -2.3 27.8
14:15 1019 30.09 848 25.04 7.4 45.3 47 -3.2 26.2
14:20 1019 30.09 848 25.04 7.7 45.9 45 -3.6 25.6
14:25 1019 30.09 848 25.04 7.5 45.5 47 -3.1 26.4
14:30 1019 30.09 848 25.04 7.4 45.4 47 -3.1 26.4
14:35 1019 30.09 848 25.04 7.3 45.1 44 -4 24.7
14:40 1019 30.09 848 25.04 7.6 45.7 43 -4.2 24.4
14:45 1018 30.06 848 25.04 8.2 46.8 37 -5.5 22
14:50 1018 30.06 848 25.04 8.8 47.9 33 -6.6 20.1
14:55 1018 30.06 848 25.04 8.8 47.9 34 -6.3 20.6
15:00 1018 30.06 848 25.04 8.5 47.4 36 -5.8 21.6
15:05 1018 30.06 848 25.04 8.6 47.4 36 -5.8 21.5
15:10 1018 30.06 848 25.04 8.6 47.4 36 -5.8 21.5
15:15 1019 30.09 848 25.04 8.5 47.2 38 -5.2 22.6
15:20 1019 30.09 848 25.04 8.5 47.2 40 -4.2 24.4
15:25 1019 30.09 848 25.04 8.2 46.7 41 -4.1 24.6
15:30 1019 30.09 848 25.04 8 46.3 42 -4 24.8
15:35 1019 30.09 848 25.04 8 46.5 39 -5.1 22.9
15:40 1019 30.09 848 25.04 8.3 47 38 -5.2 22.6
15:45 1019 30.09 848 25.04 8.7 47.7 39 -4.5 23.8
15:50 1019 30.09 848 25.04 8.4 47.1 40 -4.4 24
15:55 1019 30.09 848 25.04 8 46.5 39 -4.9 23.2
16:00 1019 30.09 848 25.04 8.2 46.7 39 -5.1 22.9
16:05 1019 30.09 848 25.04 8.7 47.7 39 -4.4 24
16:10 1019 30.09 848 25.04 8.9 48 40 -4 24.8
16:15 1019 30.09 848 25.04 8.3 47 53 -0.8 30.6
16:20 1019 30.09 848 25.04 7.2 44.9 56 -0.9 30.3
16:25 1019 30.09 848 25.04 6.7 44.1 57 -1.3 29.7
16:30 1019 30.09 848 25.04 6.7 44.1 56 -1.4 29.6
16:35 1019 30.09 849 25.07 6.4 43.5 62 -0.3 31.5
16:40 1020 30.12 849 25.07 6 42.8 61 -0.9 30.4
16:45 1020 30.12 849 25.07 6 42.9 62 -0.7 30.8
16:50 1020 30.12 849 25.07 5.9 42.6 64 -0.4 31.3
16:55 1020 30.12 849 25.07 5.7 42.2 63 -0.7 30.7
17:00 1020 30.12 849 25.07 5.4 41.7 63 -1.1 30
17:05 1020 30.12 849 25.07 5.6 42.1 63 -0.8 30.6
17:10 1020 30.12 849 25.07 5.4 41.7 68 -0.1 31.8
17:15 1020 30.12 849 25.07 4.9 40.8 69 -0.3 31.5
17:20 1020 30.12 849 25.07 5 41 67 -0.7 30.8
17:25 1020 30.12 849 25.07 5.3 41.5 66 -0.6 31
17:30 1020 30.12 849 25.07 5.6 42.1 61 -1.2 29.8
17:35 1020 30.12 849 25.07 6.2 43.2 58 -1.3 29.6
17:40 1020 30.12 849 25.07 6.2 43.2 60 -1 30.1
17:45 1020 30.12 849 25.07 6.1 42.9 59 -1.4 29.4
17:50 1020 30.12 849 25.07 5.9 42.6 59 -1.5 29.2
17:55 1020 30.12 849 25.07 6 42.7 58 -1.6 29.2
18:00 1020 30.12 849 25.07 6 42.8 58 -1.5 29.3
18:05 1020 30.12 849 25.07 5.9 42.7 58 -1.6 29.1
18:10 1020 30.12 849 25.07 5.9 42.5 59 -1.5 29.3
18:15 1020 30.12 849 25.07 5.7 42.3 60 -1.5 29.2
18:20 1020 30.12 849 25.07 5.6 42 60 -1.5 29.3
18:25 1020 30.12 849 25.07 5.6 42.1 60 -1.5 29.4
18:30 1020 30.12 849 25.07 5.5 42 61 -1.5 29.4
18:35 1020 30.12 849 25.07 5.5 41.9 61 -1.5 29.3
18:40 1020 30.12 849 25.07 5.3 41.6 62 -1.3 29.6
18:45 1020 30.12 849 25.07 5.1 41.2 64 -1.2 29.9
18:50 1020 30.12 849 25.07 4.9 40.7 65 -1.1 30
18:55 1020 30.12 849 25.07 4.7 40.5 67 -0.8 30.5
19:00 1020 30.12 849 25.07 4.7 40.5 69 -0.5 31.2
19:05 1020 30.12 849 25.07 4.7 40.5 69 -0.4 31.2
19:10 1020 30.12 849 25.07 4.6 40.3 69 -0.6 30.9
19:15 1020 30.12 850 25.1 4.6 40.3 69 -0.6 30.9
19:20 1020 30.12 850 25.1 4.6 40.3 69 -0.7 30.8
19:25 1020 30.12 850 25.1 4.6 40.3 68 -0.7 30.7
19:30 1020 30.12 850 25.1 4.5 40.1 69 -0.7 30.8
19:35 1020 30.12 850 25.1 4.4 39.9 68 -1 30.2
19:40 1021 30.15 850 25.1 4.4 39.9 68 -0.9 30.3
19:45 1021 30.15 850 25.1 4.4 39.8 69 -0.8 30.5
19:50 1021 30.15 850 25.1 4.2 39.6 69 -0.9 30.3
19:55 1021 30.15 850 25.1 4.1 39.4 69 -1.1 30
20:00 1021 30.15 850 25.1 4.1 39.4 68 -1.2 29.8
20:05 1021 30.15 850 25.1 4.2 39.6 67 -1.4 29.5
20:10 1021 30.15 850 25.1 4.3 39.7 67 -1.2 29.8
20:15 1021 30.15 850 25.1 4 39.2 69 -1.2 29.9
20:20 1021 30.15 850 25.1 3.8 38.8 70 -1.2 29.8
20:25 1021 30.15 850 25.1 3.7 38.7 70 -1.3 29.7
20:30 1021 30.15 850 25.1 3.7 38.7 70 -1.3 29.6
20:35 1021 30.15 850 25.1 3.7 38.6 69 -1.4 29.5
20:40 1021 30.15 850 25.1 3.7 38.6 69 -1.5 29.4
20:45 1021 30.15 850 25.1 3.7 38.6 69 -1.6 29.2
20:50 1021 30.15 850 25.1 3.7 38.6 68 -1.6 29.1
20:55 1021 30.15 850 25.1 3.6 38.4 69 -1.5 29.3
21:00 1021 30.15 850 25.1 3.3 38 69 -1.7 28.9
21:05 1021 30.15 850 25.1 3.3 38 68 -2.1 28.3
21:10 1021 30.15 850 25.1 3.6 38.4 65 -2.3 27.8
21:15 1021 30.15 850 25.1 3.8 38.9 64 -2.3 27.9
21:20 1021 30.15 851 25.13 3.9 39 63 -2.5 27.4
21:25 1021 30.15 851 25.13 3.9 39 64 -2.4 27.7
21:30 1021 30.15 851 25.13 3.6 38.5 65 -2.4 27.6
21:35 1021 30.15 851 25.13 3.3 37.9 65 -2.7 27.1
21:40 1021 30.15 851 25.13 3.1 37.6 64 -3.1 26.4
21:45 1021 30.15 851 25.13 3.2 37.7 62 -3.3 26
21:50 1021 30.15 851 25.13 3.2 37.8 61 -3.6 25.6
21:55 1022 30.18 851 25.13 3.2 37.7 61 -3.5 25.6
22:00 1022 30.18 851 25.13 3.2 37.8 61 -3.7 25.4
22:05 1022 30.18 851 25.13 3.2 37.8 61 -3.6 25.4
22:10 1022 30.18 851 25.13 3.2 37.8 60 -3.9 25
22:15 1022 30.18 851 25.13 3.2 37.7 60 -3.8 25.2
22:20 1022 30.18 851 25.13 3.2 37.7 60 -3.8 25.1
22:25 1022 30.18 851 25.13 3.1 37.6 60 -3.8 25.1
22:30 1022 30.18 851 25.13 3.1 37.6 59 -4 24.7
22:35 1022 30.18 851 25.13 3.1 37.6 59 -4.2 24.5
22:40 1022 30.18 851 25.13 3.2 37.8 58 -4.2 24.4
22:45 1022 30.18 851 25.13 3.3 37.9 58 -4.2 24.4
22:50 1022 30.18 851 25.13 3.3 37.9 59 -4.1 24.7
22:55 1022 30.18 851 25.13 3.2 37.7 60 -3.8 25.2
23:00 1022 30.18 851 25.13 3 37.3 61 -3.9 25.1
23:05 1022 30.18 851 25.13 3.1 37.6 58 -4.4 24.1
23:10 1022 30.18 851 25.13 3.4 38.1 57 -4.3 24.2
23:15 1022 30.18 851 25.13 3.5 38.3 56 -4.4 24.1
23:20 1022 30.18 851 25.13 3.6 38.4 56 -4.5 23.9
23:25 1022 30.18 851 25.13 3.6 38.4 56 -4.4 24
23:30 1022 30.18 851 25.13 3.5 38.3 56 -4.5 24
23:35 1022 30.18 851 25.13 3.5 38.2 56 -4.4 24
23:40 1022 30.18 851 25.13 3.4 38.2 57 -4.4 24.1
23:45 1022 30.18 851 25.13 3.4 38.1 57 -4.3 24.3
23:50 1022 30.18 851 25.13 3.4 38 58 -4.2 24.5
23:55 1022 30.18 851 25.13 3.2 37.7 59 -4 24.8
24:00 1022 30.18 851 25.13 3 37.4 60 -3.9 24.9